2022 Chicago Beer Can Series
Final Results Race 8

Select to view a specific Class results:   

Racing Circle Division Class Starting Date Starting Time Distance Wind

Chicago Beer Can Series PHRF Green Division 17/Aug/2022 06:45 PM 3.71 NM 7 Kts
Chicago Beer Can Series PHRF Jib and Main (>0) 17/Aug/2022 06:50 PM 4.55 NM 7 Kts
Chicago Beer Can Series PHRF Spinnaker 3 (rating>99) 17/Aug/2022 06:55 PM 4.55 NM 7 Kts
Chicago Beer Can Series PHRF Spinnaker 2 (rating 79-99) 17/Aug/2022 07:00 PM 4.55 NM 7 Kts
Chicago Beer Can Series PHRF Beneteau 36.7 17/Aug/2022 07:05 PM 4.55 NM 7 Kts
Chicago Beer Can Series PHRF Spinnaker 1 (rating 0-78) 17/Aug/2022 07:10 PM 4.55 NM 7 Kts
Chicago Beer Can Series PHRF Turbo / Turbo JAM 17/Aug/2022 07:15 PM 4.55 NM 7 Kts



Bow Sail Number Yacht Name Yacht Design Owner/Skipper Status Rating Finish Time Elapsed Time Corrected Time Class Fleet
Chicago Beer Can Series Racing
PHRF Division
Spinnaker 1 (rating 0-78)
1   USA 24 Momentus J 111 Kevin Saedi / Raman Yousefi 36.0 17/Aug/22 - 20:01:41 0:00:51:41 0:00:48:57 1 1
2 UK Sailmakers  USA 25578 Paradigm Shift C&C 115 Dave Dickerson 72.0 17/Aug/22 - 20:07:00 0:00:57:00 0:00:51:32 2 6
3   USA 270 Vanda III J 109 Jack Toliver 72.0 17/Aug/22 - 20:07:12 0:00:57:12 0:00:51:44 3 7
4   USA 26 Renegade J 133 Thomas Papoutsis 15.0 17/Aug/22 - 20:02:56 0:00:52:56 0:00:51:48 4 8
5   USA 11508 Maskwa C&C 115 Donald Waller 69.0 17/Aug/22 - 20:07:52 0:00:57:52 0:00:52:38 5 13
6   USA 312 Bloodline J 109 Woody Hansmann 72.0 17/Aug/22 - 20:09:03 0:00:59:03 0:00:53:35 6 17
7   USA 1300 Alpha Puppy J 35 Rick Stage 69.0 17/Aug/22 - 20:09:16 0:00:59:16 0:00:54:02 7 19
8   USA 34741 White River C&C 41 gary daggett 78.0 17/Aug/22 - 20:12:10 0:01:02:10 0:00:56:15 8 29
9   USA42917 WILDCARD Beneteau 40.7 First Sean Sullivan Charlie Diamond 54.0 17/Aug/22 - 20:10:41 0:01:00:41 0:00:56:35 9 31
10   USA 50659 Mazal Tov J 120 Arne Fliflet 48.0 17/Aug/22 - 20:15:43 0:01:05:43 0:01:02:05 10 37
11   USA 229 Fryheid II Beneteau 40.7 David Kornreich 54.0 17/Aug/22 - 20:18:56 0:01:08:56 0:01:04:50 11 42
12   USA 238 Jambo Beneteau First 36.7 Joe & Cindy Marciniak 75.0 17/Aug/22 - 20:22:13 0:01:12:13 0:01:06:32 12 45
13   USA 25580 CheepNDeep II J 44 Jim/Randy Richter/Kuhn DNC 30.0       24  
14   USA 141 Smee Again J 109 G Miz/Dreher/Hatfield/Neenan DNC 72.0       24  
15   USA 51196 Spanker Beneteau First 40.7 Boyd Rice DNC 54.0       24  
16   USA 52039 Jahazi J 120 Mark Olsen DNC 51.0       24  
17   USA 249 Full Tilt J 109 Peter Priede DNC 72.0       24  
18   USA 246 Northstar J/109 Team Northstar DNC 72.0       24  
19   USA 70029 Le Reve Sunfast 3300 Vanessa Gates / Patrick Bredlau DNC 63.0       24  
20   USA 50136 SALSA J/130 Fergus Clare DNC 24.0       24  
21   USA 39530 Hiwassee Farr395 Ian FISHER DNC 26.0       24  
22   USA 52477 Guppy Beneteau First 47.7 Tim Pigula DNC 36.0       24  
23   USA 52377 LEGACY C&C 110 DONALD REYNERTSON DNC 75.0       24  
 
Spinnaker 2 (rating 79-99)
1   USA 42934 Whisper Express 34 Thomas Barnes 96.0 17/Aug/22 - 19:58:22 0:00:58:22 0:00:51:05 1 3
2   USA 114 Tejas Hobie 33 Nate,Eric,John,Aras Chamberlin,Rivard,Westbrook,Karaitis 90.0 17/Aug/22 - 19:59:22 0:00:59:22 0:00:52:32 2 11
3 UK Sailmakers  USA 24 Gwhiz Beneteau First 10R Geoffrey Davis 81.0 17/Aug/22 - 20:00:03 0:01:00:03 0:00:53:54 3 18
4   USA 384 Valhalla J 105 Mike & Kathie Newman 87.0 17/Aug/22 - 20:00:46 0:01:00:46 0:00:54:10 4 20
5   USA 381 Peregrine J 105 Megan Stoll 87.0 17/Aug/22 - 20:01:04 0:01:01:04 0:00:54:28 5 22
6   USA 50638 Esprit d'Ecosse J 105 Judith & Ross McLean 87.0 17/Aug/22 - 20:01:28 0:01:01:28 0:00:54:52 6 23
7   USA 33 Handsome Pete Beneteau First 10R David Baker 84.0 17/Aug/22 - 20:04:48 0:01:04:48 0:00:58:26 7 33
8   USA 32121 Fastnet Baltic 38 DP Tracy Stevenson 92.0 17/Aug/22 - 20:10:42 0:01:10:42 0:01:03:43 8 40
9   USA 42234 Serenity Beneteau first 42 Arnold Hirsch 84.0 17/Aug/22 - 20:15:41 0:01:15:41 0:01:09:19 9 47
10 Doyle Sailmakers  USA 85 Fortunate Sun Tartan 4100 John Dunlevy DNC 99.0       15  
11   USA 424 Flying Pig J 105 Mike Sheppard DNC 87.0       15  
12   129 Nyctosaur J 105 Mark Fruin DNC 87.0       15  
13   29 Hokey Smoke J 105 Richard Stearns DNC 87.0       15  
14   USA 386 Y-Not J 105 Gerhard Zinserling DNC 87.0       15  
 
Spinnaker 3 (rating>99)
1   54951 Tenacity Olson 34 Peter Cooper 104.0 17/Aug/22 - 19:54:07 0:00:59:07 0:00:51:14 1 5
2   USA 26300 Winnebago LS10 Stephen Pratt 126.0 17/Aug/22 - 19:56:43 0:01:01:43 0:00:52:10 2 10
3   345 Out of the Blue T Ten George Jackowiec 126.0 17/Aug/22 - 20:00:14 0:01:05:14 0:00:55:41 3 26
4   USA 32319 Perspicacity T-10 Bob Cohen Adam Collins 126.0 17/Aug/22 - 20:00:35 0:01:05:35 0:00:56:02 4 28
5   40202 Truant S2 9.1 Walter & Holly Kawula 132.0 17/Aug/22 - 20:01:27 0:01:06:27 0:00:56:26 5 30
6   USA 23994 Planxty J 30 Dennis Bartley 138.0 17/Aug/22 - 20:06:38 0:01:11:38 0:01:01:10 6 35
7   34109 Shoe String Olson 34 Jay Grizzell 107.0 17/Aug/22 - 20:04:32 0:01:09:32 0:01:01:25 7 36
8   USA 52395 Ranger Hunter 355 William Bartz 141.0 17/Aug/22 - 20:09:15 0:01:14:15 0:01:03:33 8 39
9   23712 Blizzard T10 Warren Udelson 126.0 17/Aug/22 - 20:09:52 0:01:14:52 0:01:05:19 9 43
10 33   USA 6525 Cahoots Peterson 34 Michael Ciechanowski 117.0 17/Aug/22 - 20:11:19 0:01:16:19 0:01:07:27 10 46
11   USA 411 Minister LS 10 Blane & Cindy Boynton DNC 126.0       17  
12   38038 Off Duty Sabre 38 Mk I Stu Friedman DNC 129.0       17  
13 Doyle Sailmakers  15609 Kirb Alert Kirby Hayes / Keys DNC 177.0       17  
14   USA 52982 No Reverse Hunter Legend 37.5 Bob HorenKamp DNC 108.0       17  
15   USA 345 Out of the Blue T-10 Jeffery Cross DNC 126.0       17  
16   USA 61284 Liberté Beneteau 41.1 Brett August DNC 105.0       17  
 
Beneteau 36.7
1   USA 235 Eclipse Beneteau First 36.7 Peter Nielsen 75.0 17/Aug/22 - 20:01:44 0:00:56:44 0:00:51:03 1 2
2   USA 60500 Veni Vidi Veatchi Beneteau First 36.7 Jason Veatch 75.0 17/Aug/22 - 20:02:37 0:00:57:37 0:00:51:56 2 9
3   USA 52051 Free Radical Beneteau First 36.7 Robert Nelson 75.0 17/Aug/22 - 20:04:06 0:00:59:06 0:00:53:25 3 14
4   USA 267 Venteux Beneteau First 36.7 J & J, A Sailing Company 75.0 17/Aug/22 - 20:04:08 0:00:59:08 0:00:53:27 4 15
5 North Sails  USA 60130 Soulshine Beneteau First 36.7 Jarrett Altmin 75.0 17/Aug/22 - 20:05:03 0:01:00:03 0:00:54:22 5 21
6 Doyle Sailmakers  USA 26219 FOG First 36.7 Greg Rasmussen 75.0 17/Aug/22 - 20:06:01 0:01:01:01 0:00:55:20 6 24
7 93   USA 45367 Gaucho Beneteau First 36.7 Mark & Diane Bouckaert 75.0 17/Aug/22 - 20:06:02 0:01:01:02 0:00:55:21 7 25
8   USA 4444 Nomad Beneteau First 36.7 Cristina & Silviu Petrea 75.0 17/Aug/22 - 20:11:17 0:01:06:17 0:01:00:36 8 34
9   USA 247 Painkiller 5 Beneteau First 36.7 Alice Martin DNC 75.0       11  
10   USA 219 Brawndo Beneteau FIRST 36.7 Matthew Lescohier DNC 75.0       11  
 
Turbo / Turbo JAM
1   USA 46892 Skye Nelson Marek 46 Jeff & Jane Hoswell -12.0 17/Aug/22 - 20:05:17 0:00:50:17 0:00:51:12 1 4
2 North Sails  USA 77984 Sagamore Nelson Marek 68 Bob Zeman, Laura and Tone Martin DNC -54.0       3  
 
Jib and Main (>0)
1   USA 50499 Cookie Monster Nautor Swan 40 Peter Goldman 102.0 17/Aug/22 - 19:50:19 0:01:00:19 0:00:52:35 1 12
2   USA 50134 Sirocco VI Mumm 36 Bill & Viviana Fanizzo 57.0 17/Aug/22 - 19:47:48 0:00:57:48 0:00:53:29 2 16
3   Usa 42484 Success Wylie 39 Kasey Iwasyk 69.0 17/Aug/22 - 19:51:11 0:01:01:11 0:00:55:57 3 27
4   USA 30007 Tempest Frers 30 Hank Kalmus 141.0 17/Aug/22 - 19:58:49 0:01:08:49 0:00:58:07 4 32
5   USA 42521 Sea Phoenix T35 Gary Knappenberger 84.0 17/Aug/22 - 20:00:18 0:01:10:18 0:01:03:56 5 41
6   USA 51293 18 Degrees Nautor's Swan Jerrold Senser 80.0 17/Aug/22 - 20:01:34 0:01:11:34 0:01:05:30 6 44
7   USA 271 Yukon J 105 Ralph Krauss 105.0 17/Aug/22 - 20:09:28 0:01:19:28 0:01:11:30 7 48
8   6322 Shearwater Peterson 34 Mark Luscombe 132.0 17/Aug/22 - 20:31:38 0:01:41:38 0:01:31:37 8 49
9   USA 51746 Taipan Farr 40 Lloyd Karzen DNC 18.0       17  
10   42746 Sling Shot Sabre 38 MK II Terry Litz DNC 135.0       17  
11   N/A La Petite Mort Beneteau 285 Colin Mackintosh DNC 204.0       17  
12   USA 50958 Denne X-Yachts Peter Ackerman DNC 93.0       17  
13   USA 46730 de novo J 105 William Metzdorff DNC 105.0       17  
14   USA 16713 Escorpión Borracho Coronado 34 Anthony Halawith DNC 198.0       17  
15   USA 61322 Bliss Jeanneau 409 Ruth Pecherek DNC 183.0       17  
16   USA 51787 Raptor Beneteau First 36.7 Michael Anderson DNC 87.0       17  
 
Green Division
1   USA 52512 Bloody Mary Pearson 303 Dan Cooley 222.0 17/Aug/22 - 20:01:53 0:01:16:53 0:01:03:09 1 38
2 2532 Other  USA 15027 No Rules Catalina 22 wing keel Ralph/Dave Hanses/DePaulo RET 294.0       3  
3   3757 Alydar Catalina 27 Lucas Rodgers DNC 222.0       7  
4   581 Shamrock Hunter 34 David Mellinger DNC 150.0       7  
5   29 Puffin Tanzer 29 gary daggett DNC 193.0       8  
 

Back to previous page
Main Menu

Copyright © North Technology Group LLC 2000-2022
Terms & Conditions   •  Privacy_Policy